Time;durP1;ratioP1;P1;durP2;ratioP2;P2;SDS_P1;SDS_P2;PMS_P1;PMS_P2;Temp;Humidity;BMP_temperature;BMP_pressure;BME280_temperature;BME280_humidity;BME280_pressure;Samples;Min_cycle;Max_cycle;Signal;HPM_P1;HPM_P2
2023/01/22 00:00:37;;;;;;;17.48;12.70;;;0.90;99.90;;;;;;2042968;28;20333;-84
2023/01/22 00:01:38;;;;;;;19.02;12.48;;;0.90;99.90;;;;;;2047310;29;20411;-82
2023/01/22 00:02:39;;;;;;;18.15;12.43;;;0.90;99.90;;;;;;2049561;28;20046;-77
2023/01/22 00:03:40;;;;;;;16.77;11.98;;;0.90;99.90;;;;;;2039117;29;20039;-79
2023/01/22 00:04:41;;;;;;;19.00;12.48;;;0.90;99.90;;;;;;2039318;29;20259;-74
2023/01/22 00:05:41;;;;;;;19.50;12.68;;;0.90;99.90;;;;;;2048171;28;20520;-76
2023/01/22 00:06:42;;;;;;;18.75;12.70;;;1.00;99.90;;;;;;2045982;29;20455;-75
2023/01/22 00:07:42;;;;;;;21.67;13.30;;;0.90;99.90;;;;;;2040756;29;20042;-76
2023/01/22 00:08:43;;;;;;;23.77;14.05;;;0.90;99.90;;;;;;2041898;29;20101;-76
2023/01/22 00:09:43;;;;;;;21.80;14.02;;;1.00;99.90;;;;;;2044151;29;20087;-75
2023/01/22 00:10:50;;;;;;;21.35;13.75;;;0.90;99.90;;;;;;2045948;29;20065;-76
2023/01/22 00:11:51;;;;;;;21.20;13.38;;;0.90;99.90;;;;;;2047175;28;20035;-76
2023/01/22 00:12:52;;;;;;;18.60;12.93;;;0.90;99.90;;;;;;2045605;29;20051;-76
2023/01/22 00:13:52;;;;;;;21.48;14.40;;;0.90;99.90;;;;;;2039615;29;20035;-76
2023/01/22 00:14:53;;;;;;;20.13;13.20;;;1.00;99.90;;;;;;2037673;29;20023;-75
2023/01/22 00:15:56;;;;;;;19.88;13.30;;;0.90;99.90;;;;;;2045851;28;20036;-77
2023/01/22 00:16:57;;;;;;;20.50;13.60;;;1.00;99.90;;;;;;2047900;28;20104;-76
2023/01/22 00:17:57;;;;;;;21.25;14.00;;;0.90;99.90;;;;;;2045500;29;20035;-76
2023/01/22 00:18:58;;;;;;;20.25;13.40;;;1.00;99.90;;;;;;2045955;28;20039;-77
2023/01/22 00:19:58;;;;;;;19.98;13.75;;;1.00;99.90;;;;;;2034067;29;20106;-76
2023/01/22 00:20:59;;;;;;;20.95;14.20;;;0.90;99.90;;;;;;2029601;29;20103;-76
2023/01/22 00:22:00;;;;;;;20.23;14.15;;;1.00;99.90;;;;;;2037360;29;20043;-76
2023/01/22 00:23:00;;;;;;;22.10;14.88;;;1.00;99.90;;;;;;2046843;28;20059;-76
2023/01/22 00:24:01;;;;;;;25.38;16.42;;;1.00;99.90;;;;;;2047192;28;20497;-75
2023/01/22 00:25:02;;;;;;;23.95;16.33;;;1.00;99.90;;;;;;2043798;28;20042;-76
2023/01/22 00:26:12;;;;;;;28.15;17.08;;;1.00;99.90;;;;;;2046082;28;20539;-75
2023/01/22 00:27:14;;;;;;;24.05;15.85;;;1.00;99.90;;;;;;2043492;29;20027;-76
2023/01/22 00:28:15;;;;;;;23.25;15.50;;;1.00;99.90;;;;;;2045605;29;20039;-76
2023/01/22 00:29:16;;;;;;;35.47;17.88;;;1.00;99.90;;;;;;2038296;29;20043;-75
2023/01/22 00:30:16;;;;;;;23.38;16.23;;;1.00;99.90;;;;;;2036446;29;20055;-76
2023/01/22 00:31:18;;;;;;;29.42;18.20;;;0.90;99.90;;;;;;2041839;29;20031;-76
2023/01/22 00:32:18;;;;;;;22.95;15.68;;;0.90;99.90;;;;;;2028805;29;20468;-75
2023/01/22 00:33:19;;;;;;;25.60;14.93;;;0.90;99.90;;;;;;2036680;29;20107;-75
2023/01/22 00:34:19;;;;;;;22.33;14.65;;;0.90;99.90;;;;;;2044854;28;20035;-76
2023/01/22 00:35:20;;;;;;;21.95;14.00;;;0.90;99.90;;;;;;2035824;29;20031;-76
2023/01/22 00:36:21;;;;;;;21.08;13.95;;;0.90;99.90;;;;;;2040715;29;20093;-75
2023/01/22 00:37:21;;;;;;;21.55;13.50;;;0.90;99.90;;;;;;2045785;29;20035;-76
2023/01/22 00:38:22;;;;;;;22.38;14.18;;;0.90;99.90;;;;;;2045307;29;20446;-76
2023/01/22 00:39:22;;;;;;;22.52;13.77;;;0.90;99.90;;;;;;2045769;29;20028;-76
2023/01/22 00:40:23;;;;;;;23.52;14.35;;;0.90;99.90;;;;;;2035197;29;20562;-76
2023/01/22 00:41:26;;;;;;;20.98;14.10;;;0.90;99.90;;;;;;2037459;29;20032;-76
2023/01/22 00:42:26;;;;;;;20.13;13.23;;;0.90;99.90;;;;;;2045438;29;20031;-77
2023/01/22 00:43:28;;;;;;;19.50;13.05;;;0.90;99.90;;;;;;2047207;28;20129;-76
2023/01/22 00:44:29;;;;;;;21.02;13.38;;;0.90;99.90;;;;;;2049159;28;20045;-76
2023/01/22 00:45:30;;;;;;;20.70;13.45;;;0.90;99.90;;;;;;2041782;28;20705;-77
2023/01/22 00:46:31;;;;;;;20.38;12.95;;;0.90;99.90;;;;;;2045378;29;20035;-75
2023/01/22 00:47:32;;;;;;;18.27;12.32;;;0.90;99.90;;;;;;2036928;29;20036;-78
2023/01/22 00:48:33;;;;;;;23.55;14.35;;;0.90;99.90;;;;;;2029214;29;20120;-76
2023/01/22 00:49:34;;;;;;;21.48;13.63;;;0.90;99.90;;;;;;2036905;29;20034;-77
2023/01/22 00:50:34;;;;;;;22.25;14.52;;;1.00;99.90;;;;;;2044182;28;20602;-77
2023/01/22 00:51:35;;;;;;;21.77;14.05;;;1.00;99.90;;;;;;2045790;29;20430;-77
2023/01/22 00:52:39;;;;;;;20.17;12.95;;;1.00;99.90;;;;;;2037031;29;20082;-76
2023/01/22 00:53:42;;;;;;;19.52;12.98;;;1.00;99.90;;;;;;2037329;29;20035;-76
2023/01/22 00:54:44;;;;;;;19.60;13.15;;;1.00;99.90;;;;;;2043645;29;20039;-76
2023/01/22 00:55:57;;;;;;;18.90;12.55;;;1.00;99.90;;;;;;2045844;28;20473;-75
2023/01/22 00:56:57;;;;;;;19.98;12.50;;;1.00;99.90;;;;;;2053172;28;20045;-77
2023/01/22 00:57:58;;;;;;;21.63;13.43;;;1.00;99.90;;;;;;2046002;28;20041;-77
2023/01/22 00:58:59;;;;;;;19.65;12.77;;;1.00;99.90;;;;;;2045901;29;20031;-76
2023/01/22 00:59:59;;;;;;;22.63;13.38;;;1.00;99.90;;;;;;2043594;29;20083;-75
2023/01/22 01:01:04;;;;;;;23.98;14.80;;;1.00;99.90;;;;;;2045111;28;20035;-76
2023/01/22 01:02:06;;;;;;;22.67;14.45;;;1.00;99.90;;;;;;2037162;29;20602;-75
2023/01/22 01:04:26;;;;;;;20.20;13.25;;;1.00;99.90;;;;;;2045247;28;20038;-76
2023/01/22 01:05:26;;;;;;;21.25;14.00;;;1.00;99.90;;;;;;2035090;29;20118;-76
2023/01/22 01:06:27;;;;;;;21.95;13.68;;;1.00;99.90;;;;;;2042451;29;20035;-75
2023/01/22 01:07:28;;;;;;;20.08;13.63;;;1.00;99.90;;;;;;2050554;28;20034;-76
2023/01/22 01:08:31;;;;;;;19.52;13.27;;;1.00;99.90;;;;;;2045369;28;20026;-77
2023/01/22 01:09:31;;;;;;;21.42;13.50;;;1.00;99.90;;;;;;2051798;28;20035;-75
2023/01/22 01:10:32;;;;;;;23.42;14.50;;;1.00;99.90;;;;;;2046828;28;20106;-76
2023/01/22 01:11:32;;;;;;;21.73;13.80;;;1.00;99.90;;;;;;2029636;29;20041;-76
2023/01/22 01:12:33;;;;;;;23.63;14.65;;;1.00;99.90;;;;;;2028964;29;20040;-77
2023/01/22 01:13:41;;;;;;;24.45;14.88;;;1.00;99.90;;;;;;2036868;29;20035;-77
2023/01/22 01:14:42;;;;;;;20.40;13.43;;;1.00;99.90;;;;;;2035430;29;20047;-75
2023/01/22 01:15:42;;;;;;;24.77;14.98;;;1.00;99.90;;;;;;2037093;29;20042;-75
2023/01/22 01:16:43;;;;;;;26.33;15.30;;;1.00;99.90;;;;;;2036727;29;20498;-78
2023/01/22 01:17:45;;;;;;;31.38;16.20;;;1.00;99.90;;;;;;2036759;29;20216;-76
2023/01/22 01:18:46;;;;;;;25.35;14.57;;;0.90;99.90;;;;;;2036895;29;20035;-75
2023/01/22 01:19:46;;;;;;;21.05;13.85;;;0.90;99.90;;;;;;2043683;28;20079;-76
2023/01/22 01:20:53;;;;;;;22.13;14.15;;;0.90;99.90;;;;;;2037169;29;20094;-76
2023/01/22 01:21:54;;;;;;;24.25;14.52;;;0.90;99.90;;;;;;2030081;29;20142;-78
2023/01/22 01:22:54;;;;;;;25.13;14.25;;;0.90;99.90;;;;;;2037100;29;20039;-76
2023/01/22 01:23:56;;;;;;;24.65;13.65;;;0.90;99.90;;;;;;2045562;29;20196;-77
2023/01/22 01:24:56;;;;;;;23.70;14.50;;;1.00;99.90;;;;;;2043595;28;20523;-76
2023/01/22 01:25:57;;;;;;;21.02;13.27;;;1.00;99.90;;;;;;2045664;29;20039;-76
2023/01/22 01:26:58;;;;;;;21.08;13.13;;;1.00;99.90;;;;;;2036778;29;20028;-77
2023/01/22 01:27:58;;;;;;;20.15;12.65;;;1.00;99.90;;;;;;2036861;29;20035;-76
2023/01/22 01:28:59;;;;;;;23.60;14.48;;;1.00;99.90;;;;;;2045663;28;20107;-76
2023/01/22 01:29:59;;;;;;;24.52;14.38;;;1.00;99.90;;;;;;2042975;29;20107;-76
2023/01/22 01:31:02;;;;;;;24.45;14.80;;;1.00;99.90;;;;;;2045298;29;20486;-76
2023/01/22 01:32:03;;;;;;;27.77;15.52;;;1.00;99.90;;;;;;2037027;29;20040;-77
2023/01/22 01:33:04;;;;;;;30.30;16.42;;;1.00;99.90;;;;;;2036712;29;20063;-76
2023/01/22 01:34:04;;;;;;;27.00;15.68;;;1.00;99.90;;;;;;2035726;29;20059;-77
2023/01/22 01:35:05;;;;;;;25.58;15.43;;;1.00;99.90;;;;;;2031762;29;20028;-76
2023/01/22 01:36:20;;;;;;;26.05;15.45;;;1.00;99.90;;;;;;2045704;29;20313;-77
2023/01/22 01:37:21;;;;;;;25.00;15.45;;;1.00;99.90;;;;;;2044932;28;20064;-77
2023/01/22 01:38:21;;;;;;;21.88;13.85;;;1.00;99.90;;;;;;2045135;29;21029;-77
2023/01/22 01:39:23;;;;;;;22.65;14.02;;;1.00;99.90;;;;;;2046330;28;20083;-77
2023/01/22 01:40:23;;;;;;;23.98;14.57;;;1.00;99.90;;;;;;2035540;29;20040;-77
2023/01/22 01:41:25;;;;;;;28.33;16.30;;;1.00;99.90;;;;;;2036966;29;20174;-77
2023/01/22 01:42:32;;;;;;;24.52;14.57;;;1.00;99.90;;;;;;2037033;29;20042;-77
2023/01/22 01:43:33;;;;;;;22.65;13.52;;;1.00;99.90;;;;;;2022467;29;20036;-77
2023/01/22 01:44:36;;;;;;;22.35;13.80;;;1.00;99.90;;;;;;2036967;29;20035;-77
2023/01/22 01:45:37;;;;;;;22.40;14.05;;;1.00;99.90;;;;;;2037858;28;20039;-77
2023/01/22 01:46:42;;;;;;;24.75;14.88;;;1.00;99.90;;;;;;2039582;29;20127;-76
2023/01/22 01:47:44;;;;;;;28.13;15.95;;;1.00;99.90;;;;;;2039730;28;20162;-77
2023/01/22 01:48:47;;;;;;;27.58;16.05;;;1.00;99.90;;;;;;2036724;29;20035;-77
2023/01/22 01:49:51;;;;;;;26.75;16.42;;;1.00;99.90;;;;;;2035340;29;20038;-76
2023/01/22 01:51:13;;;;;;;30.92;15.43;;;1.00;99.90;;;;;;2045550;29;20086;-77
2023/01/22 01:52:14;;;;;;;24.08;14.82;;;1.00;99.90;;;;;;2038654;29;20557;-77
2023/01/22 01:53:14;;;;;;;24.65;14.07;;;1.00;99.90;;;;;;2037375;29;20028;-76
2023/01/22 01:54:16;;;;;;;25.00;15.27;;;1.00;99.90;;;;;;2037040;29;20036;-75
2023/01/22 01:55:23;;;;;;;24.23;15.02;;;1.00;99.90;;;;;;2034454;29;20179;-78
2023/01/22 01:56:32;;;;;;;26.23;15.10;;;1.00;99.90;;;;;;2029286;29;20036;-75
2023/01/22 01:57:33;;;;;;;25.70;15.75;;;1.00;99.90;;;;;;2032622;29;20375;-76
2023/01/22 01:58:36;;;;;;;22.90;14.20;;;1.00;99.90;;;;;;2036879;29;20041;-76
2023/01/22 01:59:38;;;;;;;21.98;13.70;;;1.00;99.90;;;;;;2037172;29;20126;-76
2023/01/22 02:00:42;;;;;;;21.83;14.23;;;1.00;99.90;;;;;;2034641;29;20115;-77
2023/01/22 02:01:48;;;;;;;22.55;14.40;;;1.00;99.90;;;;;;2029408;29;20084;-76
2023/01/22 02:02:50;;;;;;;25.42;15.15;;;1.00;99.90;;;;;;2036644;29;20042;-76
2023/01/22 02:03:51;;;;;;;26.38;15.13;;;1.00;99.90;;;;;;2044728;28;20526;-76
2023/01/22 02:04:52;;;;;;;25.65;15.13;;;1.00;99.90;;;;;;2036150;29;20582;-76
2023/01/22 02:05:53;;;;;;;24.70;14.25;;;1.00;99.90;;;;;;2043969;29;20043;-76
2023/01/22 02:06:54;;;;;;;22.48;13.82;;;1.00;99.90;;;;;;2045436;29;20027;-75
2023/01/22 02:07:54;;;;;;;22.88;14.50;;;1.00;99.90;;;;;;2036723;29;20027;-76
2023/01/22 02:08:56;;;;;;;26.80;14.98;;;1.00;99.90;;;;;;2030434;29;20306;-75
2023/01/22 02:09:57;;;;;;;23.20;14.63;;;1.00;99.90;;;;;;2036343;29;20449;-76
2023/01/22 02:10:57;;;;;;;25.30;15.25;;;0.90;99.90;;;;;;2046199;29;20071;-76
2023/01/22 02:11:58;;;;;;;24.50;15.07;;;1.00;99.90;;;;;;2046697;28;20278;-75
2023/01/22 02:13:04;;;;;;;23.60;14.32;;;1.00;99.90;;;;;;2049748;28;20530;-76
2023/01/22 02:14:08;;;;;;;24.23;14.98;;;1.00;99.90;;;;;;2038500;29;20035;-77
2023/01/22 02:15:10;;;;;;;25.58;14.50;;;1.00;99.90;;;;;;2037788;29;20058;-77
2023/01/22 02:16:11;;;;;;;22.45;13.77;;;1.00;99.90;;;;;;2039356;28;20058;-77
2023/01/22 02:17:14;;;;;;;24.15;13.88;;;1.00;99.90;;;;;;2047519;28;20038;-76
2023/01/22 02:18:14;;;;;;;26.55;15.55;;;1.00;99.90;;;;;;2052716;28;20035;-76
2023/01/22 02:19:15;;;;;;;28.95;16.50;;;0.90;99.90;;;;;;2049241;28;20110;-77
2023/01/22 02:20:15;;;;;;;29.48;16.55;;;0.90;99.90;;;;;;2048567;28;20555;-75
2023/01/22 02:21:35;;;;;;;23.33;14.68;;;0.90;99.90;;;;;;2046831;28;20249;-76
2023/01/22 02:22:37;;;;;;;27.38;16.20;;;1.00;99.90;;;;;;2051394;28;20401;-75
2023/01/22 02:23:38;;;;;;;25.17;15.82;;;1.00;99.90;;;;;;2038598;29;20197;-75
2023/01/22 02:24:38;;;;;;;24.52;14.82;;;1.00;99.90;;;;;;2030372;29;20617;-75
2023/01/22 02:25:41;;;;;;;23.52;15.20;;;1.00;99.90;;;;;;2044836;28;20031;-76
2023/01/22 02:26:45;;;;;;;26.55;16.13;;;1.00;99.90;;;;;;2037854;29;20448;-75
2023/01/22 02:27:50;;;;;;;30.02;16.13;;;1.00;99.90;;;;;;2038620;29;20391;-76
2023/01/22 02:28:54;;;;;;;26.15;15.18;;;1.00;99.90;;;;;;2037865;29;20517;-76
2023/01/22 02:29:56;;;;;;;25.15;15.45;;;1.00;99.90;;;;;;2028802;29;20050;-76
2023/01/22 02:30:56;;;;;;;24.77;14.70;;;0.90;99.90;;;;;;2030094;29;20044;-75
2023/01/22 02:31:58;;;;;;;25.27;14.82;;;0.90;99.90;;;;;;2038048;29;20035;-77
2023/01/22 02:32:59;;;;;;;24.10;14.55;;;0.90;99.90;;;;;;2030205;29;20057;-76
2023/01/22 02:34:00;;;;;;;25.30;15.18;;;1.00;99.90;;;;;;2030235;29;20036;-75
2023/01/22 02:35:02;;;;;;;26.02;15.00;;;1.00;99.90;;;;;;2036161;29;20030;-76
2023/01/22 02:36:03;;;;;;;22.25;13.98;;;1.00;99.90;;;;;;2030243;29;20028;-76
2023/01/22 02:37:04;;;;;;;33.03;16.23;;;1.00;99.90;;;;;;2037863;29;20147;-77
2023/01/22 02:38:06;;;;;;;25.75;15.50;;;1.00;99.90;;;;;;2037909;29;20083;-76
2023/01/22 02:39:08;;;;;;;41.40;18.70;;;1.00;99.90;;;;;;2039822;29;20031;-76
2023/01/22 02:40:09;;;;;;;27.00;16.02;;;0.90;99.90;;;;;;2044127;29;20094;-76
2023/01/22 02:41:10;;;;;;;25.48;15.23;;;0.90;99.90;;;;;;2051681;28;20076;-76
2023/01/22 02:42:12;;;;;;;26.88;15.07;;;0.90;99.90;;;;;;2047401;28;20502;-76
2023/01/22 02:43:15;;;;;;;25.13;14.77;;;1.00;99.90;;;;;;2046192;28;20092;-76
2023/01/22 02:44:16;;;;;;;23.40;14.07;;;1.00;99.90;;;;;;2037542;29;20034;-74
2023/01/22 02:45:18;;;;;;;25.67;14.65;;;1.00;99.90;;;;;;2038787;28;20039;-75
2023/01/22 02:46:19;;;;;;;25.90;14.27;;;1.00;99.90;;;;;;2046591;28;20035;-76
2023/01/22 02:47:20;;;;;;;23.40;13.73;;;1.00;99.90;;;;;;2045930;29;20051;-76
2023/01/22 02:48:21;;;;;;;23.90;13.50;;;1.00;99.90;;;;;;2045898;28;20058;-75
2023/01/22 02:49:22;;;;;;;28.30;15.35;;;1.00;99.90;;;;;;2029986;29;20040;-75
2023/01/22 02:50:23;;;;;;;33.38;16.42;;;1.00;99.90;;;;;;2022702;29;20028;-75
2023/01/22 02:51:25;;;;;;;24.40;15.07;;;1.00;99.90;;;;;;2036733;29;20038;-75
2023/01/22 02:52:26;;;;;;;25.27;15.10;;;1.00;99.90;;;;;;2039525;29;20103;-75
2023/01/22 02:53:26;;;;;;;25.67;15.20;;;1.00;99.90;;;;;;2038206;29;21514;-76
2023/01/22 02:54:27;;;;;;;24.60;15.07;;;1.00;99.90;;;;;;2037870;29;20099;-76
2023/01/22 02:55:27;;;;;;;25.80;15.00;;;1.00;99.90;;;;;;2030062;29;20075;-76
2023/01/22 02:56:32;;;;;;;24.98;14.32;;;1.00;99.90;;;;;;2031482;29;20619;-76
2023/01/22 02:57:33;;;;;;;25.83;15.02;;;1.00;99.90;;;;;;2038151;29;20036;-81
2023/01/22 02:58:35;;;;;;;27.65;15.07;;;1.00;99.90;;;;;;2037657;29;20031;-76
2023/01/22 02:59:35;;;;;;;25.60;14.02;;;1.00;99.90;;;;;;2037736;29;20031;-76
2023/01/22 03:00:36;;;;;;;25.10;14.00;;;1.00;99.90;;;;;;2046037;28;20171;-76
2023/01/22 03:01:37;;;;;;;23.60;13.93;;;1.00;99.90;;;;;;2036728;29;20038;-76
2023/01/22 03:02:37;;;;;;;23.73;13.52;;;1.00;99.90;;;;;;2037826;29;20047;-75
2023/01/22 03:03:38;;;;;;;22.95;14.07;;;1.00;99.90;;;;;;2037793;29;20510;-75
2023/01/22 03:04:38;;;;;;;25.75;14.07;;;1.00;99.90;;;;;;2030046;29;20028;-76
2023/01/22 03:05:49;;;;;;;27.77;14.77;;;1.00;99.90;;;;;;2037372;29;20565;-75
2023/01/22 03:06:49;;;;;;;28.90;14.82;;;1.00;99.90;;;;;;2044076;28;20037;-76
2023/01/22 03:07:50;;;;;;;24.73;14.48;;;1.00;99.90;;;;;;2037942;29;20241;-76
2023/01/22 03:08:54;;;;;;;25.63;14.00;;;1.00;99.90;;;;;;2039048;29;20039;-76
2023/01/22 03:09:54;;;;;;;23.70;13.73;;;1.00;99.90;;;;;;2045529;29;20058;-75
2023/01/22 03:10:58;;;;;;;24.92;13.55;;;1.00;99.90;;;;;;2037819;29;20083;-75
2023/01/22 03:12:00;;;;;;;24.83;14.35;;;1.00;99.90;;;;;;2041373;28;20027;-75
2023/01/22 03:21:15;;;;;;;18.73;11.68;;;1.00;99.90;;;;;;2045836;29;20499;-77
2023/01/22 03:22:17;;;;;;;17.52;11.40;;;1.00;99.90;;;;;;2038149;29;20039;-77
2023/01/22 03:23:17;;;;;;;20.00;12.13;;;1.00;99.90;;;;;;2045154;28;20082;-75
2023/01/22 03:24:18;;;;;;;18.23;11.68;;;1.10;99.90;;;;;;2046271;28;20087;-75
2023/01/22 03:25:18;;;;;;;20.67;12.48;;;1.00;99.90;;;;;;2037921;29;20107;-76
2023/01/22 03:26:22;;;;;;;19.13;12.05;;;1.00;99.90;;;;;;2029727;29;20126;-76
2023/01/22 03:27:24;;;;;;;20.60;12.50;;;1.10;99.90;;;;;;2038995;29;20050;-76
2023/01/22 03:28:25;;;;;;;22.05;13.00;;;1.10;99.90;;;;;;2045257;28;20805;-76
2023/01/22 03:29:28;;;;;;;21.70;12.98;;;1.00;99.90;;;;;;2037428;29;20544;-76
2023/01/22 03:30:29;;;;;;;21.42;12.93;;;1.00;99.90;;;;;;2029597;29;20274;-76
2023/01/22 03:31:30;;;;;;;20.80;12.70;;;1.00;99.90;;;;;;2027946;29;20020;-75
2023/01/22 03:32:31;;;;;;;21.15;12.90;;;1.00;99.90;;;;;;2037775;29;20298;-75
2023/01/22 03:33:32;;;;;;;20.50;12.98;;;1.00;99.90;;;;;;2037760;29;20132;-75
2023/01/22 03:34:33;;;;;;;22.13;13.40;;;1.00;99.90;;;;;;2037604;29;20094;-75
2023/01/22 03:35:34;;;;;;;23.15;13.70;;;1.00;99.90;;;;;;2037566;29;20518;-75
2023/01/22 03:36:46;;;;;;;24.67;14.07;;;1.00;99.90;;;;;;2028472;29;20028;-76
2023/01/22 03:37:47;;;;;;;22.63;14.25;;;1.10;99.90;;;;;;2037125;29;20042;-75
2023/01/22 03:38:48;;;;;;;25.83;14.65;;;1.00;99.90;;;;;;2037580;29;20038;-77
2023/01/22 03:39:53;;;;;;;23.20;13.80;;;1.00;99.90;;;;;;2030049;29;20531;-75
2023/01/22 03:41:10;;;;;;;24.42;14.13;;;1.00;99.90;;;;;;2039575;29;20040;-76
2023/01/22 03:42:10;;;;;;;22.73;13.60;;;1.10;99.90;;;;;;2043988;29;20306;-76
2023/01/22 03:43:11;;;;;;;22.75;13.93;;;1.00;99.90;;;;;;2039322;29;20083;-77
2023/01/22 03:44:13;;;;;;;22.63;13.98;;;1.00;99.90;;;;;;2037379;29;20616;-76
2023/01/22 03:45:14;;;;;;;24.65;14.60;;;1.00;99.90;;;;;;2038198;29;20457;-76
2023/01/22 03:46:17;;;;;;;24.05;14.02;;;1.00;99.90;;;;;;2037194;29;20035;-77
2023/01/22 03:47:19;;;;;;;24.00;14.35;;;1.10;99.90;;;;;;2054409;28;20545;-76
2023/01/22 03:48:20;;;;;;;24.52;14.95;;;1.00;99.90;;;;;;2038202;29;20031;-77
2023/01/22 03:49:21;;;;;;;25.45;15.27;;;1.10;99.90;;;;;;2037739;29;20058;-77
2023/01/22 03:50:25;;;;;;;24.33;14.80;;;1.00;99.90;;;;;;2037931;29;20039;-76
2023/01/22 03:51:28;;;;;;;26.70;15.23;;;1.00;99.90;;;;;;2043940;29;20529;-76
2023/01/22 03:52:28;;;;;;;22.80;13.85;;;1.10;99.90;;;;;;2045413;29;20033;-75
2023/01/22 03:53:29;;;;;;;24.90;15.18;;;1.00;99.90;;;;;;2045570;29;20040;-72
2023/01/22 03:54:29;;;;;;;26.73;15.02;;;1.10;99.90;;;;;;2045585;29;20068;-72
2023/01/22 03:55:32;;;;;;;22.40;13.98;;;1.00;99.90;;;;;;2045207;29;20405;-71
2023/01/22 03:56:33;;;;;;;24.13;14.55;;;1.00;99.90;;;;;;2032801;29;20417;-71
2023/01/22 03:57:40;;;;;;;28.35;15.40;;;1.00;99.90;;;;;;2026557;29;20009;-72
2023/01/22 03:58:41;;;;;;;22.25;13.95;;;1.00;99.90;;;;;;2037490;29;20393;-71
2023/01/22 03:59:41;;;;;;;27.67;15.60;;;1.00;99.90;;;;;;2044675;28;20394;-72
2023/01/22 04:00:42;;;;;;;27.90;15.40;;;1.00;99.90;;;;;;2037221;29;20196;-73
2023/01/22 04:01:43;;;;;;;24.75;14.77;;;1.10;99.90;;;;;;2028001;29;20042;-71
2023/01/22 04:02:43;;;;;;;24.25;14.80;;;1.00;99.90;;;;;;2043172;29;20534;-71
2023/01/22 04:03:53;;;;;;;24.92;14.70;;;1.00;99.90;;;;;;2037402;29;20067;-72
2023/01/22 04:04:56;;;;;;;26.17;14.95;;;1.00;99.90;;;;;;2029947;29;20032;-71
2023/01/22 04:05:59;;;;;;;26.08;15.80;;;1.10;99.90;;;;;;2029524;29;20099;-71
2023/01/22 04:06:59;;;;;;;27.25;15.68;;;1.00;99.90;;;;;;2034008;29;20024;-71
2023/01/22 04:08:00;;;;;;;26.35;14.85;;;1.00;99.90;;;;;;2041319;28;20032;-71
2023/01/22 04:09:03;;;;;;;25.73;14.38;;;1.00;99.90;;;;;;2037111;29;20020;-72
2023/01/22 04:10:12;;;;;;;23.85;13.82;;;1.00;99.90;;;;;;2032475;29;20032;-71
2023/01/22 04:11:13;;;;;;;23.58;13.82;;;1.00;99.90;;;;;;2044045;28;20485;-71
2023/01/22 04:12:14;;;;;;;23.90;13.82;;;1.10;99.90;;;;;;2044290;29;20511;-71
2023/01/22 04:13:16;;;;;;;23.00;12.98;;;1.10;99.90;;;;;;2037777;29;20263;-71
2023/01/22 04:14:19;;;;;;;21.63;13.68;;;1.10;99.90;;;;;;2037440;29;20063;-71
2023/01/22 04:15:35;;;;;;;20.80;12.35;;;1.10;99.90;;;;;;2023523;29;20064;-71
2023/01/22 04:16:42;;;;;;;22.92;13.27;;;1.10;99.90;;;;;;2036133;29;20031;-72
2023/01/22 04:18:01;;;;;;;25.35;14.27;;;1.10;99.90;;;;;;2041870;29;20023;-72
2023/01/22 04:19:08;;;;;;;24.00;14.20;;;1.10;99.90;;;;;;2032086;29;20337;-72
2023/01/22 04:20:26;;;;;;;26.13;14.80;;;1.10;99.90;;;;;;2045252;29;20036;-72
2023/01/22 04:21:50;;;;;;;26.60;14.85;;;1.10;99.90;;;;;;2038487;28;20031;-72
2023/01/22 04:22:52;;;;;;;26.65;14.55;;;1.10;99.90;;;;;;2044046;28;20060;-73
2023/01/22 04:23:52;;;;;;;26.63;15.13;;;1.10;99.90;;;;;;2037224;29;20091;-72
2023/01/22 04:24:53;;;;;;;27.48;15.13;;;1.10;99.90;;;;;;2037677;29;20095;-70
2023/01/22 04:25:54;;;;;;;34.50;16.67;;;1.10;99.90;;;;;;2044460;29;20462;-72
2023/01/22 04:26:55;;;;;;;33.83;16.80;;;1.10;99.90;;;;;;2043536;29;20035;-71
2023/01/22 04:27:55;;;;;;;30.58;16.15;;;1.10;99.90;;;;;;2037158;29;20114;-71
2023/01/22 04:28:56;;;;;;;26.35;15.43;;;1.10;99.90;;;;;;2029185;29;20099;-72
2023/01/22 04:29:58;;;;;;;29.58;15.75;;;1.10;99.90;;;;;;2037599;29;20118;-71
2023/01/22 04:30:58;;;;;;;30.27;17.08;;;1.10;99.90;;;;;;2044764;28;20034;-73
2023/01/22 04:32:14;;;;;;;30.92;17.15;;;1.20;99.90;;;;;;2037403;29;20113;-72
2023/01/22 04:33:34;;;;;;;36.22;18.20;;;1.20;99.90;;;;;;2040407;29;20043;-71
2023/01/22 04:34:53;;;;;;;35.42;17.38;;;1.10;99.90;;;;;;2029485;29;20056;-73
2023/01/22 04:36:31;;;;;;;33.83;16.02;;;1.10;99.90;;;;;;2030653;29;20103;-72
2023/01/22 04:37:32;;;;;;;32.45;16.40;;;1.00;99.90;;;;;;2045869;29;20071;-72
2023/01/22 04:38:33;;;;;;;30.27;16.35;;;1.00;99.90;;;;;;2037141;29;20032;-71
2023/01/22 04:39:33;;;;;;;29.40;15.45;;;1.00;99.90;;;;;;2037164;29;20050;-72
2023/01/22 04:40:34;;;;;;;30.00;15.57;;;1.10;99.90;;;;;;2037115;29;20024;-72
2023/01/22 04:41:34;;;;;;;27.33;15.23;;;1.10;99.90;;;;;;2036303;29;20036;-71
2023/01/22 04:42:35;;;;;;;28.38;15.77;;;1.00;99.90;;;;;;2040129;29;20035;-71
2023/01/22 04:43:37;;;;;;;29.73;15.88;;;1.00;99.90;;;;;;2021765;29;20064;-71
2023/01/22 04:44:37;;;;;;;28.52;15.50;;;1.00;99.90;;;;;;2020114;29;20569;-73
2023/01/22 04:45:41;;;;;;;30.40;16.25;;;1.10;99.90;;;;;;2037561;29;20495;-72
2023/01/22 04:46:42;;;;;;;30.27;15.90;;;1.10;99.90;;;;;;2037368;29;20027;-71
2023/01/22 04:47:45;;;;;;;30.00;15.82;;;1.10;99.90;;;;;;2037318;29;20086;-72
2023/01/22 04:48:48;;;;;;;31.08;15.90;;;1.10;99.90;;;;;;2037270;29;20043;-72
2023/01/22 04:49:50;;;;;;;26.55;15.43;;;1.10;99.90;;;;;;2036891;29;20518;-71
2023/01/22 04:50:51;;;;;;;31.25;15.60;;;1.10;99.90;;;;;;2045114;29;20118;-72
2023/01/22 04:51:52;;;;;;;29.45;15.45;;;1.10;99.90;;;;;;2035683;29;20028;-72
2023/01/22 04:52:54;;;;;;;30.95;16.25;;;1.10;99.90;;;;;;2040352;29;20031;-72
2023/01/22 04:53:55;;;;;;;31.33;16.48;;;1.10;99.90;;;;;;2045025;29;20023;-71
2023/01/22 04:54:56;;;;;;;30.25;15.98;;;1.10;99.90;;;;;;2044973;29;20049;-71
2023/01/22 04:56:02;;;;;;;34.13;17.70;;;1.20;99.90;;;;;;2041224;29;20030;-71
2023/01/22 04:57:02;;;;;;;32.83;17.25;;;1.20;99.90;;;;;;2036348;29;20126;-71
2023/01/22 04:58:03;;;;;;;33.28;17.05;;;1.20;99.90;;;;;;2036791;29;20023;-71
2023/01/22 04:59:04;;;;;;;31.15;16.35;;;1.20;99.90;;;;;;2037078;29;20590;-72
2023/01/22 05:00:05;;;;;;;31.52;16.48;;;1.20;99.90;;;;;;2036981;29;20058;-71
2023/01/22 05:01:06;;;;;;;34.97;17.55;;;1.20;99.90;;;;;;2042463;29;20171;-72
2023/01/22 05:02:07;;;;;;;31.85;16.30;;;1.20;99.90;;;;;;2043409;28;20042;-71
2023/01/22 05:03:10;;;;;;;30.15;16.38;;;1.10;99.90;;;;;;2045133;28;20027;-71
2023/01/22 05:04:11;;;;;;;29.83;16.30;;;1.10;99.90;;;;;;2035465;29;20030;-71
2023/01/22 05:05:11;;;;;;;40.65;19.05;;;1.10;99.90;;;;;;2030774;29;20036;-71
2023/01/22 05:06:12;;;;;;;35.53;18.48;;;1.10;99.90;;;;;;2035732;29;20095;-71
2023/01/22 05:07:13;;;;;;;55.83;21.73;;;1.20;99.90;;;;;;2045890;28;20570;-72
2023/01/22 05:08:13;;;;;;;39.95;19.85;;;1.10;99.90;;;;;;2036783;29;20044;-72
2023/01/22 05:09:14;;;;;;;36.88;18.65;;;1.10;99.90;;;;;;2037131;29;20519;-71
2023/01/22 05:10:31;;;;;;;35.20;17.15;;;1.10;99.90;;;;;;2037099;29;20591;-71
2023/01/22 05:11:31;;;;;;;34.63;17.33;;;1.10;99.90;;;;;;2035777;29;20039;-71
2023/01/22 05:12:35;;;;;;;37.08;17.80;;;1.10;99.90;;;;;;2051478;28;20113;-71
2023/01/22 05:13:36;;;;;;;31.83;16.40;;;1.10;99.90;;;;;;2037643;29;20545;-71
2023/01/22 05:14:37;;;;;;;27.33;15.90;;;1.10;99.90;;;;;;2029283;29;20043;-71
2023/01/22 05:15:38;;;;;;;36.88;18.33;;;1.20;99.90;;;;;;2036942;29;20083;-71
2023/01/22 05:16:42;;;;;;;34.95;17.65;;;1.20;99.90;;;;;;2027956;29;20065;-71
2023/01/22 05:17:43;;;;;;;33.40;17.15;;;1.20;99.90;;;;;;2029444;29;20032;-71
2023/01/22 05:18:44;;;;;;;32.75;16.60;;;1.20;99.90;;;;;;2045652;29;20292;-71
2023/01/22 05:19:44;;;;;;;30.70;16.45;;;1.20;99.90;;;;;;2045518;29;20031;-71
2023/01/22 05:20:50;;;;;;;30.42;16.20;;;1.20;99.90;;;;;;2036947;29;20418;-71
2023/01/22 05:21:52;;;;;;;37.03;18.30;;;1.20;99.90;;;;;;2027912;29;20048;-71
2023/01/22 05:22:53;;;;;;;32.95;16.73;;;1.20;99.90;;;;;;2036780;29;20032;-71
2023/01/22 05:23:58;;;;;;;41.35;18.50;;;1.20;99.90;;;;;;2036850;29;20055;-71
2023/01/22 05:25:02;;;;;;;37.28;17.77;;;1.20;99.90;;;;;;2029444;29;20127;-71
2023/01/22 05:26:04;;;;;;;35.65;17.52;;;1.20;99.90;;;;;;2037198;29;20028;-72
2023/01/22 05:27:15;;;;;;;36.22;18.25;;;1.20;99.90;;;;;;2045097;29;20043;-71
2023/01/22 05:28:26;;;;;;;36.30;18.20;;;1.20;99.90;;;;;;2044855;29;20035;-71
2023/01/22 05:29:38;;;;;;;37.47;18.88;;;1.20;99.90;;;;;;2042807;29;20046;-71
2023/01/22 05:31:06;;;;;;;44.90;20.15;;;1.20;99.90;;;;;;2037998;29;20027;-71